createdAt,value
2019-04-10T00:02:07.149Z,33.63
2019-04-10T00:04:36.721Z,36.00
2019-04-10T00:07:14.645Z,36.37
2019-04-10T00:09:39.224Z,35.47
2019-04-10T00:12:08.142Z,35.90
2019-04-10T00:14:36.796Z,35.80
2019-04-10T00:17:05.509Z,34.77
2019-04-10T00:19:35.751Z,34.77
2019-04-10T00:22:04.528Z,33.87
2019-04-10T00:24:33.167Z,35.47
2019-04-10T00:27:02.131Z,35.87
2019-04-10T00:29:32.018Z,35.90
2019-04-10T00:32:02.134Z,34.90
2019-04-10T00:34:31.833Z,35.07
2019-04-10T00:37:01.786Z,34.77
2019-04-10T00:39:30.694Z,36.77
2019-04-10T00:41:59.272Z,36.00
2019-04-10T00:44:27.965Z,36.23
2019-04-10T00:46:56.976Z,33.50
2019-04-10T00:49:26.041Z,36.60
2019-04-10T00:51:55.573Z,37.00
2019-04-10T00:54:24.253Z,34.73
2019-04-10T00:56:52.881Z,35.70
2019-04-10T00:59:21.588Z,36.80
2019-04-10T01:01:50.232Z,34.13
2019-04-10T01:04:18.885Z,36.23
2019-04-10T01:06:48.406Z,35.97
2019-04-10T01:09:17.393Z,37.10
2019-04-10T01:11:46.043Z,35.57
2019-04-10T01:14:15.788Z,34.60
2019-04-10T01:16:44.506Z,35.40
2019-04-10T01:19:13.140Z,34.03
2019-04-10T01:21:42.241Z,35.33
2019-04-10T01:24:11.152Z,32.93
2019-04-10T01:26:39.906Z,35.30
2019-04-10T01:29:09.278Z,36.40
2019-04-10T01:31:37.970Z,33.83
2019-04-10T01:34:07.449Z,32.70
2019-04-10T01:36:37.286Z,32.70
2019-04-10T01:39:08.916Z,33.83
2019-04-10T01:41:37.555Z,35.57
2019-04-10T01:44:06.336Z,31.47
2019-04-10T01:46:36.085Z,30.90
2019-04-10T01:49:05.233Z,29.23
2019-04-10T01:51:35.160Z,27.00
2019-04-10T01:54:04.084Z,27.43
2019-04-10T01:56:35.086Z,29.80
2019-04-10T01:59:03.572Z,29.17
2019-04-10T02:01:37.300Z,26.00
2019-04-10T02:04:06.734Z,25.87
2019-04-10T02:06:35.838Z,26.80
2019-04-10T02:09:07.692Z,25.20
2019-04-10T02:11:36.418Z,24.43
2019-04-10T02:14:05.726Z,24.50
2019-04-10T02:16:34.816Z,25.27
2019-04-10T02:19:03.906Z,25.60
2019-04-10T02:21:33.953Z,25.87
2019-04-10T02:24:02.949Z,23.80
2019-04-10T02:26:31.780Z,22.97
2019-04-10T02:29:01.632Z,21.90
2019-04-10T02:31:31.919Z,22.50
2019-04-10T02:34:01.574Z,22.00
2019-04-10T02:36:31.577Z,22.67
2019-04-10T02:39:12.204Z,22.03
2019-04-10T02:41:32.396Z,21.10
2019-04-10T02:44:02.921Z,21.57
2019-04-10T02:46:33.133Z,19.47
2019-04-10T02:49:05.966Z,19.93
2019-04-10T02:51:35.272Z,21.37
2019-04-10T02:54:05.254Z,20.97
2019-04-10T02:56:34.422Z,19.17
2019-04-10T02:59:04.851Z,19.37
2019-04-10T03:01:33.864Z,18.97
2019-04-10T03:04:03.428Z,19.93
2019-04-10T03:06:33.586Z,18.20
2019-04-10T03:09:18.976Z,17.67
2019-04-10T03:11:33.357Z,17.30
2019-04-10T03:14:04.791Z,17.57
2019-04-10T03:16:33.489Z,17.77
2019-04-10T03:19:03.239Z,18.57
2019-04-10T03:21:32.004Z,16.93
2019-04-10T03:29:54.407Z,16.67
2019-04-10T03:35:52.589Z,17.97
2019-04-10T03:39:18.526Z,17.00
2019-04-10T03:45:57.630Z,17.05
2019-04-10T03:48:34.760Z,17.50
2019-04-10T03:51:20.680Z,16.40
2019-04-10T03:54:24.517Z,16.53
2019-04-10T04:03:02.558Z,17.35
2019-04-10T04:05:31.228Z,17.07
2019-04-10T04:08:04.047Z,16.83
2019-04-10T04:10:32.938Z,16.30
2019-04-10T04:13:01.659Z,16.77
2019-04-10T04:15:30.413Z,17.87
2019-04-10T04:18:00.259Z,16.13
2019-04-10T04:20:29.068Z,16.90
2019-04-10T04:22:57.809Z,16.73
2019-04-10T04:25:29.111Z,16.90
2019-04-10T04:27:58.334Z,17.47
2019-04-10T04:30:27.460Z,16.63
2019-04-10T04:33:06.589Z,15.90
2019-04-10T04:35:38.746Z,16.40
2019-04-10T04:38:09.562Z,17.20
2019-04-10T04:40:38.828Z,16.27
2019-04-10T04:43:07.910Z,18.35
2019-04-10T04:45:37.563Z,15.83
2019-04-10T04:48:07.656Z,16.47
2019-04-10T04:50:36.500Z,16.00
2019-04-10T04:53:05.288Z,15.90
2019-04-10T04:55:35.190Z,15.77
2019-04-10T04:58:04.155Z,16.60
2019-04-10T05:00:33.999Z,15.95
2019-04-10T05:03:03.777Z,15.55
2019-04-10T05:05:33.598Z,17.07
2019-04-10T05:08:04.344Z,17.03
2019-04-10T05:10:33.547Z,16.27
2019-04-10T05:13:02.815Z,16.87
2019-04-10T05:15:33.677Z,20.37
2019-04-10T05:18:02.399Z,22.10
2019-04-10T05:20:41.273Z,18.60
2019-04-10T05:23:04.107Z,16.32
2019-04-10T05:25:34.357Z,17.20
2019-04-10T05:28:03.629Z,17.73
2019-04-10T05:30:33.557Z,16.80
2019-04-10T05:33:02.243Z,17.10
2019-04-10T05:35:31.956Z,22.13
2019-04-10T05:38:00.626Z,18.50
2019-04-10T05:40:30.152Z,17.83
2019-04-10T05:42:59.581Z,19.98
2019-04-10T05:45:28.357Z,18.07
2019-04-10T05:47:57.043Z,16.37
2019-04-10T05:50:25.800Z,18.50
2019-04-10T05:52:54.423Z,17.73
2019-04-10T05:55:24.620Z,16.93
2019-04-10T05:57:53.692Z,17.00
2019-04-10T06:00:23.117Z,17.77
2019-04-10T06:02:56.368Z,17.45
2019-04-10T06:05:25.143Z,17.77
2019-04-10T06:07:53.970Z,18.77
2019-04-10T06:10:22.651Z,18.00
2019-04-10T06:12:51.285Z,16.67
2019-04-10T06:15:21.091Z,16.73
2019-04-10T06:17:50.952Z,17.23
2019-04-10T06:20:20.819Z,18.85
2019-04-10T06:22:50.755Z,17.13
2019-04-10T06:25:22.217Z,17.15
2019-04-10T06:27:50.589Z,15.72
2019-04-10T06:30:21.763Z,19.50
2019-04-10T06:32:51.526Z,18.07
2019-04-10T06:35:20.341Z,16.90
2019-04-10T06:37:49.038Z,17.47
2019-04-10T06:40:21.061Z,17.55
2019-04-10T06:42:52.073Z,19.23
2019-04-10T06:45:19.741Z,18.45
2019-04-10T06:47:48.739Z,18.20
2019-04-10T06:50:17.417Z,18.15
2019-04-10T06:52:47.075Z,20.05
2019-04-10T06:55:16.013Z,17.00
2019-04-10T06:57:50.952Z,17.73
2019-04-10T07:00:18.481Z,17.80
2019-04-10T07:02:47.313Z,18.37
2019-04-10T07:05:16.504Z,18.30
2019-04-10T07:08:01.820Z,18.40
2019-04-10T07:10:30.936Z,20.20
2019-04-10T07:12:55.387Z,20.13
2019-04-10T07:15:25.525Z,17.93
2019-04-10T07:17:55.472Z,18.07
2019-04-10T07:20:26.142Z,18.17
2019-04-10T07:22:55.426Z,17.83
2019-04-10T07:25:25.736Z,18.73
2019-04-10T07:27:54.567Z,19.00
2019-04-10T07:30:26.045Z,18.60
2019-04-10T07:32:55.100Z,19.63
2019-04-10T07:35:24.092Z,19.10
2019-04-10T07:37:56.036Z,19.33
2019-04-10T07:40:23.297Z,19.63
2019-04-10T07:42:52.524Z,18.47
2019-04-10T07:45:28.614Z,18.23
2019-04-10T07:47:57.414Z,17.90
2019-04-10T07:50:26.204Z,17.90
2019-04-10T07:52:54.840Z,18.57
2019-04-10T07:55:25.695Z,18.50
2019-04-10T07:57:55.218Z,18.40
2019-04-10T08:00:25.164Z,18.63
2019-04-10T08:02:55.330Z,18.07
2019-04-10T08:05:25.050Z,17.90
2019-04-10T08:07:55.950Z,19.00
2019-04-10T08:10:24.484Z,18.50
2019-04-10T08:12:54.292Z,18.30
2019-04-10T08:15:23.216Z,18.40
2019-04-10T08:17:51.943Z,17.30
2019-04-10T08:20:21.868Z,18.63
2019-04-10T08:22:54.039Z,17.70
2019-04-10T08:25:38.775Z,18.07
2019-04-10T08:28:11.395Z,18.43
2019-04-10T08:30:41.941Z,17.63
2019-04-10T08:33:11.984Z,16.63
2019-04-10T08:35:41.912Z,18.63
2019-04-10T08:38:13.139Z,19.23
2019-04-10T08:40:41.933Z,18.17
2019-04-10T08:43:11.725Z,18.40
2019-04-10T08:45:55.494Z,18.70
2019-04-10T08:48:27.078Z,17.10
2019-04-10T08:50:56.826Z,18.32
2019-04-10T08:53:27.120Z,17.23
2019-04-10T08:55:57.202Z,18.90
2019-04-10T08:58:28.390Z,16.90
2019-04-10T09:01:01.048Z,16.70
2019-04-10T09:03:30.939Z,17.77
2019-04-10T09:06:17.887Z,17.53
2019-04-10T09:08:47.512Z,20.27
2019-04-10T09:11:25.415Z,17.37
2019-04-10T09:13:46.757Z,16.57
2019-04-10T09:16:18.344Z,14.87
2019-04-10T09:18:47.598Z,17.53
2019-04-10T09:21:17.454Z,18.30
2019-04-10T09:23:52.440Z,17.30
2019-04-10T09:26:20.294Z,17.93
2019-04-10T09:28:50.767Z,17.37
2019-04-10T09:31:19.858Z,17.67
2019-04-10T09:33:49.530Z,17.60
2019-04-10T09:36:19.723Z,16.93
2019-04-10T09:38:48.495Z,17.47
2019-04-10T09:41:17.527Z,15.93
2019-04-10T09:43:47.617Z,17.70
2019-04-10T09:46:16.467Z,17.73
2019-04-10T09:48:48.441Z,16.77
2019-04-10T09:51:38.712Z,17.17
2019-04-10T09:54:07.883Z,16.40
2019-04-10T09:56:39.589Z,16.97
2019-04-10T09:59:08.444Z,17.27
2019-04-10T10:01:38.428Z,16.40
2019-04-10T10:04:10.077Z,16.50
2019-04-10T10:06:39.609Z,15.17
2019-04-10T10:09:08.977Z,17.87
2019-04-10T10:11:38.613Z,17.17
2019-04-10T10:14:07.638Z,16.93
2019-04-10T10:16:40.619Z,15.60
2019-04-10T10:19:09.985Z,16.10
2019-04-10T10:21:38.890Z,15.77
2019-04-10T10:24:08.603Z,16.07
2019-04-10T10:26:37.543Z,15.80
2019-04-10T10:29:06.448Z,14.40
2019-04-10T10:31:36.058Z,15.33
2019-04-10T10:34:05.948Z,17.00
2019-04-10T10:36:41.469Z,16.93
2019-04-10T10:39:17.185Z,15.17
2019-04-10T10:41:46.798Z,17.07
2019-04-10T10:44:15.732Z,16.30
2019-04-10T10:46:44.557Z,16.93
2019-04-10T10:49:20.843Z,15.83
2019-04-10T10:51:49.595Z,16.63
2019-04-10T10:54:18.913Z,15.80
2019-04-10T10:56:50.999Z,15.53
2019-04-10T10:59:20.371Z,15.40
2019-04-10T11:01:49.106Z,15.60
2019-04-10T11:04:21.268Z,15.60
2019-04-10T11:06:59.350Z,16.23
2019-04-10T11:09:23.917Z,15.33
2019-04-10T11:11:53.734Z,14.57
2019-04-10T11:14:25.272Z,14.10
2019-04-10T11:16:58.025Z,13.60
2019-04-10T11:19:27.139Z,15.33
2019-04-10T11:21:56.879Z,14.73
2019-04-10T11:24:47.139Z,14.30
2019-04-10T11:27:31.802Z,15.10
2019-04-10T11:30:05.488Z,14.97
2019-04-10T11:32:34.214Z,15.50
2019-04-10T11:35:03.574Z,15.40
2019-04-10T11:37:41.140Z,14.70
2019-04-10T11:40:05.115Z,15.10
2019-04-10T11:42:35.094Z,13.27
2019-04-10T11:45:06.306Z,13.50
2019-04-10T11:47:36.387Z,13.70
2019-04-10T11:50:09.186Z,12.73
2019-04-10T11:55:13.775Z,12.93
2019-04-10T11:57:37.534Z,12.70
2019-04-10T12:00:12.055Z,14.10
2019-04-10T12:02:39.438Z,13.57
2019-04-10T12:05:12.013Z,12.90
2019-04-10T12:08:17.877Z,13.20
2019-04-10T12:12:39.922Z,13.17
2019-04-10T12:15:10.106Z,12.60
2019-04-10T12:17:38.868Z,12.00
2019-04-10T12:20:08.966Z,12.90
2019-04-10T12:22:38.067Z,12.13
2019-04-10T12:25:07.066Z,12.80
2019-04-10T12:27:36.897Z,12.00
2019-04-10T12:30:07.626Z,11.37
2019-04-10T12:32:36.727Z,12.17
2019-04-10T12:35:06.750Z,12.20
2019-04-10T12:37:35.726Z,12.80
2019-04-10T12:40:05.528Z,12.60
2019-04-10T12:42:34.616Z,13.33
2019-04-10T12:45:04.656Z,12.07
2019-04-10T12:47:34.257Z,13.93
2019-04-10T12:50:03.781Z,13.20
2019-04-10T12:52:34.765Z,12.90
2019-04-10T12:55:03.962Z,12.13
2019-04-10T12:57:32.942Z,12.23
2019-04-10T13:00:04.638Z,12.67
2019-04-10T13:02:32.317Z,12.47
2019-04-10T13:05:01.026Z,13.40
2019-04-10T13:07:31.688Z,12.50
2019-04-10T13:10:00.513Z,13.40
2019-04-10T13:12:29.388Z,11.40
2019-04-10T13:14:59.147Z,13.00
2019-04-10T13:17:28.915Z,12.97
2019-04-10T13:19:57.733Z,12.87
2019-04-10T13:22:26.559Z,11.73
2019-04-10T13:24:55.263Z,12.63
2019-04-10T13:27:23.977Z,13.07
2019-04-10T13:29:52.725Z,12.53
2019-04-10T13:32:21.542Z,11.87
2019-04-10T13:34:51.278Z,11.63
2019-04-10T13:37:20.219Z,11.40
2019-04-10T13:39:49.035Z,12.30
2019-04-10T13:42:17.859Z,13.30
2019-04-10T13:44:46.793Z,12.30
2019-04-10T13:47:18.019Z,11.70
2019-04-10T13:49:48.436Z,12.30
2019-04-10T13:52:18.243Z,11.10
2019-04-10T13:54:47.187Z,12.40
2019-04-10T13:57:16.017Z,10.87
2019-04-10T13:59:47.413Z,11.90
2019-04-10T14:02:27.708Z,13.00
2019-04-10T14:04:57.450Z,11.27
2019-04-10T14:07:26.875Z,13.70
2019-04-10T14:09:56.558Z,10.30
2019-04-10T14:12:25.570Z,11.83
2019-04-10T14:14:55.162Z,11.77
2019-04-10T14:17:24.068Z,10.87
2019-04-10T14:19:54.032Z,12.37
2019-04-10T14:22:23.907Z,12.73
2019-04-10T14:24:53.622Z,12.20
2019-04-10T14:27:25.370Z,11.80
2019-04-10T14:29:54.594Z,12.27
2019-04-10T14:32:29.219Z,11.90
2019-04-10T14:34:58.825Z,11.87
2019-04-10T14:37:29.557Z,12.97
2019-04-10T14:39:58.532Z,13.23
2019-04-10T14:42:28.327Z,12.70
2019-04-10T14:44:57.265Z,13.10
2019-04-10T14:47:26.093Z,11.80
2019-04-10T14:49:55.438Z,11.97
2019-04-10T14:52:25.400Z,12.70
2019-04-10T14:54:56.492Z,12.30
2019-04-10T14:57:26.402Z,13.37
2019-04-10T14:59:56.068Z,11.57
2019-04-10T15:02:26.474Z,12.80
2019-04-10T15:04:55.421Z,12.80
2019-04-10T15:07:24.236Z,13.23
2019-04-10T15:09:52.982Z,12.27
2019-04-10T15:12:24.703Z,11.73
2019-04-10T15:14:54.129Z,11.70
2019-04-10T15:17:23.181Z,13.67
2019-04-10T15:19:54.263Z,11.60
2019-04-10T15:22:23.503Z,13.80
2019-04-10T15:24:52.381Z,12.30
2019-04-10T15:27:21.566Z,12.70
2019-04-10T15:29:50.500Z,12.53
2019-04-10T15:32:20.225Z,11.70
2019-04-10T15:34:49.191Z,12.67
2019-04-10T15:37:17.913Z,12.80
2019-04-10T15:39:46.693Z,11.37
2019-04-10T15:42:16.254Z,11.27
2019-04-10T15:44:46.040Z,11.27
2019-04-10T15:47:19.702Z,11.80
2019-04-10T15:49:45.541Z,10.23
2019-04-10T15:52:14.525Z,11.17
2019-04-10T15:54:43.463Z,11.30
2019-04-10T15:57:12.101Z,12.20
2019-04-10T15:59:40.774Z,11.53
2019-04-10T16:02:09.443Z,11.03
2019-04-10T16:04:38.166Z,10.87
2019-04-10T16:07:06.863Z,11.00
2019-04-10T16:09:46.382Z,11.70
2019-04-10T16:12:14.527Z,10.87
2019-04-10T16:14:44.317Z,10.33
2019-04-10T16:17:34.420Z,11.77
2019-04-10T16:20:20.330Z,10.80
2019-04-10T16:23:14.322Z,11.37
2019-04-10T16:25:46.798Z,10.80
2019-04-10T16:28:17.983Z,10.73
2019-04-10T16:30:46.762Z,11.50
2019-04-10T16:33:16.843Z,12.07
2019-04-10T16:35:46.225Z,10.70
2019-04-10T16:38:14.981Z,12.37
2019-04-10T16:40:43.890Z,12.27
2019-04-10T16:43:13.835Z,10.90
2019-04-10T16:45:42.700Z,11.77
2019-04-10T16:48:11.532Z,12.10
2019-04-10T16:50:40.289Z,12.00
2019-04-10T16:53:09.794Z,12.83
2019-04-10T16:55:38.814Z,11.17
2019-04-10T16:58:07.667Z,11.20
2019-04-10T17:00:37.578Z,12.53
2019-04-10T17:03:06.824Z,12.17
2019-04-10T17:05:35.530Z,12.20
2019-04-10T17:08:05.629Z,13.57
2019-04-10T17:10:34.586Z,11.57
2019-04-10T17:13:04.446Z,12.57
2019-04-10T17:15:34.264Z,12.10
2019-04-10T17:18:03.263Z,13.80
2019-04-10T17:20:32.895Z,11.97
2019-04-10T17:23:02.553Z,11.73
2019-04-10T17:25:31.264Z,13.20
2019-04-10T17:28:00.089Z,12.23
2019-04-10T17:30:29.545Z,11.83
2019-04-10T17:32:58.371Z,12.83
2019-04-10T17:35:27.604Z,12.27
2019-04-10T17:37:56.318Z,13.50
2019-04-10T17:40:33.577Z,13.40
2019-04-10T17:42:56.697Z,12.80
2019-04-10T17:45:27.512Z,13.43
2019-04-10T17:47:56.815Z,13.40
2019-04-10T17:50:27.863Z,12.00
2019-04-10T17:52:56.814Z,11.80
2019-04-10T17:55:25.571Z,13.17
2019-04-10T17:57:57.386Z,12.73
2019-04-10T18:00:31.637Z,13.30
2019-04-10T18:03:01.223Z,13.37
2019-04-10T18:05:30.868Z,11.37
2019-04-10T18:08:02.912Z,13.83
2019-04-10T18:10:52.543Z,12.23
2019-04-10T18:13:22.747Z,12.70
2019-04-10T18:15:54.091Z,11.93
2019-04-10T18:18:45.740Z,12.00
2019-04-10T18:21:22.446Z,11.97
2019-04-10T18:23:57.890Z,12.37
2019-04-10T18:26:37.782Z,12.30
2019-04-10T18:29:11.896Z,11.83
2019-04-10T18:31:45.813Z,14.37
2019-04-10T18:34:19.334Z,12.10
2019-04-10T18:36:57.072Z,12.73
2019-04-10T18:39:43.598Z,12.57
2019-04-10T18:42:24.349Z,12.03
2019-04-10T18:45:03.741Z,12.37
2019-04-10T18:47:38.818Z,13.53
2019-04-10T18:50:07.897Z,13.33
2019-04-10T18:52:37.805Z,12.13
2019-04-10T18:55:12.535Z,11.87
2019-04-10T18:57:45.269Z,12.03
2019-04-10T19:00:34.455Z,11.63
2019-04-10T19:03:21.439Z,12.20
2019-04-10T19:05:54.754Z,11.20
2019-04-10T19:08:24.670Z,11.80
2019-04-10T19:11:10.576Z,11.83
2019-04-10T19:13:33.360Z,10.70
2019-04-10T19:16:04.116Z,11.43
2019-04-10T19:18:37.526Z,10.17
2019-04-10T19:21:11.391Z,11.47
2019-04-10T19:23:42.100Z,11.17
2019-04-10T19:26:15.581Z,11.73
2019-04-10T19:28:48.783Z,11.50
2019-04-10T19:31:24.250Z,12.33
2019-04-10T19:34:16.979Z,11.37
2019-04-10T19:36:48.743Z,12.75
2019-04-10T19:39:20.227Z,12.37
2019-04-10T19:41:53.858Z,12.50
2019-04-10T19:44:24.784Z,13.57
2019-04-10T19:46:59.851Z,11.93
2019-04-10T19:49:35.014Z,10.97
2019-04-10T19:52:28.541Z,11.00
2019-04-10T19:55:05.109Z,9.97
2019-04-10T19:57:41.514Z,10.30
2019-04-10T20:00:14.988Z,11.30
2019-04-10T20:02:44.456Z,10.28
2019-04-10T20:05:47.870Z,11.00
2019-04-10T20:08:20.275Z,10.27
2019-04-10T20:10:52.465Z,10.77
2019-04-10T20:13:26.949Z,10.97
2019-04-10T20:15:56.505Z,8.70
2019-04-10T20:18:26.595Z,9.30
2019-04-10T20:20:58.127Z,10.65
2019-04-10T20:23:29.987Z,9.70
2019-04-10T20:25:58.976Z,9.20
2019-04-10T20:28:28.889Z,10.20
2019-04-10T20:30:59.502Z,9.73
2019-04-10T20:33:32.632Z,9.73
2019-04-10T20:36:06.819Z,10.57
2019-04-10T20:38:37.334Z,10.40
2019-04-10T20:41:10.682Z,9.60
2019-04-10T20:43:42.857Z,9.87
2019-04-10T20:46:14.382Z,9.70
2019-04-10T20:48:44.638Z,10.00
2019-04-10T20:51:17.249Z,10.50
2019-04-10T20:53:50.502Z,9.30
2019-04-10T20:56:22.282Z,10.83
2019-04-10T20:58:57.510Z,10.35
2019-04-10T21:01:46.994Z,9.63
2019-04-10T21:04:18.051Z,10.30
2019-04-10T21:06:48.177Z,10.00
2019-04-10T21:09:43.815Z,9.93
2019-04-10T21:12:18.105Z,11.23
2019-04-10T21:14:45.822Z,11.88
2019-04-10T21:17:14.574Z,12.03
2019-04-10T21:19:43.301Z,10.33
2019-04-10T21:22:11.910Z,11.40
2019-04-10T21:24:41.242Z,10.32
2019-04-10T21:27:11.199Z,11.37
2019-04-10T21:30:07.863Z,10.83
2019-04-10T21:32:58.460Z,10.77
2019-04-10T21:35:30.921Z,11.30
2019-04-10T21:37:59.628Z,10.93
2019-04-10T21:40:28.245Z,10.57
2019-04-10T21:42:58.095Z,10.77
2019-04-10T21:45:26.993Z,11.20
2019-04-10T21:47:55.742Z,11.33
2019-04-10T21:50:24.759Z,11.23
2019-04-10T21:52:53.542Z,12.47
2019-04-10T21:55:23.579Z,12.40
2019-04-10T21:57:52.396Z,10.87
2019-04-10T22:00:36.717Z,11.80
2019-04-10T22:03:05.573Z,12.13
2019-04-10T22:05:36.756Z,10.90
2019-04-10T22:08:27.483Z,11.68
2019-04-10T22:10:57.335Z,12.10
2019-04-10T22:13:26.206Z,11.87
2019-04-10T22:15:55.434Z,11.93
2019-04-10T22:18:25.289Z,11.00
2019-04-10T22:20:54.187Z,12.47
2019-04-10T22:23:22.828Z,12.28
2019-04-10T22:25:52.263Z,12.82
2019-04-10T22:28:21.145Z,12.68
2019-04-10T22:30:50.578Z,12.60
2019-04-10T22:33:20.240Z,12.80
2019-04-10T22:35:49.026Z,12.30
2019-04-10T22:38:17.745Z,12.37
2019-04-10T22:40:46.386Z,13.32
2019-04-10T22:43:15.922Z,12.13
2019-04-10T22:45:44.744Z,12.90
2019-04-10T22:48:14.608Z,12.83
2019-04-10T22:50:43.344Z,12.47
2019-04-10T22:53:12.972Z,13.70
2019-04-10T22:55:42.458Z,14.15
2019-04-10T22:58:11.118Z,13.17
2019-04-10T23:00:39.853Z,13.88
2019-04-10T23:03:08.476Z,14.80
2019-04-10T23:05:37.350Z,13.60
2019-04-10T23:08:06.015Z,13.10
2019-04-10T23:10:35.314Z,13.98
2019-04-10T23:13:05.584Z,14.50
2019-04-10T23:15:35.555Z,14.73
2019-04-10T23:18:05.483Z,13.88
2019-04-10T23:20:34.270Z,13.13
2019-04-10T23:23:03.158Z,14.73
2019-04-10T23:25:32.156Z,14.15
2019-04-10T23:28:01.094Z,13.45
2019-04-10T23:30:29.916Z,13.80
2019-04-10T23:32:59.614Z,13.90
2019-04-10T23:35:29.542Z,15.30
2019-04-10T23:37:59.379Z,15.55
2019-04-10T23:40:29.194Z,14.05
2019-04-10T23:43:07.732Z,14.00
2019-04-10T23:45:29.444Z,14.50
2019-04-10T23:47:58.410Z,13.72
2019-04-10T23:50:27.106Z,14.60
2019-04-10T23:52:56.245Z,14.58
2019-04-10T23:55:25.997Z,13.58
2019-04-10T23:57:55.912Z,15.50
